Havre-Aubert, Canada
Current Conditions -  °F | °C
As of 10:00 AM on Monday 22 Dec 2014 (Local Time) from CYGR Reporting Station
Overcast Overcast  
Wind Chill: 20°   Ceiling: 1800
Heat Index: 27°   Visibility: 20mi
Dew Point: 21°   Wind: 6mph
Humidity: 80%   Direction: 40°NE
Pressure: 30.48"   Gusts: NA
Location:  47.23°N, 61.85°W
Report Text: CYGR 221400Z 04005KT 010V090 20SM OVC018 M03/M06 A3048 RMK SC8 SLP322
Loading
Personal Weather Stations






























Interactive Weather Map New forecast layout! Learn more

10-Day Weather Forecast

Advertisements
Track Severe Weather on mobile